createdAt,value
2019-03-21T00:02:12.703Z,7.40
2019-03-21T00:05:02.305Z,7.35
2019-03-21T00:07:51.327Z,6.92
2019-03-21T00:11:35.868Z,8.33
2019-03-21T00:15:09.472Z,7.20
2019-03-21T00:18:04.626Z,7.47
2019-03-21T00:20:54.324Z,6.47
2019-03-21T00:23:43.441Z,6.58
2019-03-21T00:26:32.802Z,7.05
2019-03-21T00:29:21.675Z,10.43
2019-03-21T00:32:11.079Z,13.50
2019-03-21T00:35:00.585Z,11.20
2019-03-21T00:37:50.414Z,8.85
2019-03-21T00:40:43.874Z,8.35
2019-03-21T00:43:32.591Z,7.47
2019-03-21T00:46:22.137Z,7.50
2019-03-21T00:49:11.437Z,7.50
2019-03-21T00:52:00.096Z,8.00
2019-03-21T00:54:49.331Z,7.33
2019-03-21T00:57:38.716Z,7.72
2019-03-21T01:00:34.068Z,7.25
2019-03-21T01:03:22.807Z,6.60
2019-03-21T01:06:12.095Z,7.28
2019-03-21T01:09:01.442Z,6.40
2019-03-21T01:11:50.888Z,7.42
2019-03-21T01:14:39.585Z,7.42
2019-03-21T01:17:29.049Z,7.83
2019-03-21T01:20:18.128Z,6.97
2019-03-21T01:23:07.679Z,8.70
2019-03-21T01:25:57.853Z,6.55
2019-03-21T01:28:47.195Z,6.90
2019-03-21T01:31:36.691Z,7.05
2019-03-21T01:34:25.556Z,6.40
2019-03-21T01:37:15.195Z,7.20
2019-03-21T01:40:04.345Z,6.50
2019-03-21T01:42:53.519Z,7.10
2019-03-21T01:45:42.347Z,7.28
2019-03-21T01:48:31.237Z,7.15
2019-03-21T01:51:20.640Z,7.33
2019-03-21T01:54:10.845Z,7.28
2019-03-21T01:57:00.327Z,7.42
2019-03-21T01:59:50.621Z,7.25
2019-03-21T02:02:39.922Z,7.53
2019-03-21T02:05:28.565Z,6.85
2019-03-21T02:08:17.316Z,7.47
2019-03-21T02:11:06.716Z,7.42
2019-03-21T02:13:55.587Z,7.35
2019-03-21T02:16:44.425Z,6.90
2019-03-21T02:19:33.387Z,6.90
2019-03-21T02:22:23.016Z,7.40
2019-03-21T02:25:18.163Z,7.15
2019-03-21T02:28:06.883Z,7.10
2019-03-21T02:30:56.053Z,6.70
2019-03-21T02:33:44.884Z,6.72
2019-03-21T02:36:33.955Z,7.30
2019-03-21T02:39:22.732Z,7.87
2019-03-21T02:42:11.985Z,7.28
2019-03-21T02:45:08.459Z,6.80
2019-03-21T02:47:51.655Z,7.17
2019-03-21T02:50:40.574Z,8.35
2019-03-21T02:53:30.336Z,7.05
2019-03-21T02:56:20.056Z,6.83
2019-03-21T02:59:09.274Z,6.42
2019-03-21T03:01:58.916Z,5.93
2019-03-21T03:04:47.977Z,6.42
2019-03-21T03:07:37.540Z,6.60
2019-03-21T03:10:39.072Z,6.53
2019-03-21T03:13:28.693Z,7.15
2019-03-21T03:16:17.546Z,6.20
2019-03-21T03:19:07.068Z,7.08
2019-03-21T03:21:56.124Z,6.15
2019-03-21T03:24:44.976Z,6.53
2019-03-21T03:27:34.206Z,7.00
2019-03-21T03:30:24.349Z,6.80
2019-03-21T03:33:13.392Z,5.97
2019-03-21T03:36:02.445Z,5.92
2019-03-21T03:38:51.554Z,5.72
2019-03-21T03:41:40.869Z,6.40
2019-03-21T03:44:29.466Z,6.45
2019-03-21T03:47:18.856Z,7.50
2019-03-21T03:50:08.738Z,7.83
2019-03-21T03:52:57.317Z,7.63
2019-03-21T03:55:47.003Z,7.95
2019-03-21T03:58:36.801Z,7.90
2019-03-21T04:01:25.821Z,8.15
2019-03-21T04:04:15.751Z,7.70
2019-03-21T04:07:05.094Z,8.03
2019-03-21T04:09:54.545Z,6.30
2019-03-21T04:12:43.993Z,6.22
2019-03-21T04:15:33.134Z,5.90
2019-03-21T04:18:22.487Z,4.67
2019-03-21T04:21:11.696Z,6.40
2019-03-21T04:24:00.898Z,6.03
2019-03-21T04:26:49.885Z,5.67
2019-03-21T04:29:38.579Z,5.45
2019-03-21T04:32:28.390Z,5.50
2019-03-21T04:35:18.045Z,6.47
2019-03-21T04:38:07.409Z,5.22
2019-03-21T04:40:56.703Z,5.22
2019-03-21T04:43:46.216Z,5.65
2019-03-21T04:46:34.859Z,5.50
2019-03-21T04:49:24.758Z,5.90
2019-03-21T04:52:14.428Z,5.78
2019-03-21T04:55:02.974Z,6.28
2019-03-21T04:57:51.589Z,6.15
2019-03-21T05:00:40.861Z,5.70
2019-03-21T05:03:30.316Z,6.00
2019-03-21T05:06:19.333Z,5.50
2019-03-21T05:09:11.749Z,5.10
2019-03-21T05:12:01.442Z,5.95
2019-03-21T05:14:50.693Z,6.90
2019-03-21T05:17:39.321Z,6.20
2019-03-21T05:20:29.275Z,6.28
2019-03-21T05:23:18.671Z,6.15
2019-03-21T05:26:18.392Z,6.80
2019-03-21T05:29:07.412Z,7.45
2019-03-21T05:31:56.154Z,8.37
2019-03-21T05:34:45.057Z,6.62
2019-03-21T05:37:34.179Z,7.03
2019-03-21T05:40:22.811Z,6.92
2019-03-21T05:43:18.212Z,6.83
2019-03-21T05:46:07.561Z,7.03
2019-03-21T05:48:57.131Z,5.90
2019-03-21T05:51:46.560Z,6.80
2019-03-21T05:54:35.227Z,6.35
2019-03-21T05:57:23.873Z,6.08
2019-03-21T06:00:19.377Z,5.97
2019-03-21T06:03:16.106Z,6.58
2019-03-21T06:06:12.572Z,6.15
2019-03-21T06:09:02.346Z,6.20
2019-03-21T06:11:55.577Z,6.08
2019-03-21T06:14:49.118Z,6.60
2019-03-21T06:17:37.908Z,6.60
2019-03-21T06:20:41.593Z,6.28
2019-03-21T06:24:15.094Z,7.85
2019-03-21T06:27:14.881Z,6.40
2019-03-21T06:30:04.611Z,7.70
2019-03-21T06:32:53.880Z,6.80
2019-03-21T06:35:43.018Z,7.17
2019-03-21T06:38:32.318Z,6.85
2019-03-21T06:41:21.492Z,6.40
2019-03-21T06:44:10.579Z,6.30
2019-03-21T06:46:59.645Z,6.78
2019-03-21T06:49:48.528Z,7.55
2019-03-21T06:52:37.313Z,7.12
2019-03-21T06:55:26.732Z,6.95
2019-03-21T06:58:16.291Z,6.75
2019-03-21T07:01:05.267Z,6.60
2019-03-21T07:03:54.590Z,6.70
2019-03-21T07:06:43.355Z,5.70
2019-03-21T07:09:32.649Z,5.70
2019-03-21T07:12:21.834Z,5.85
2019-03-21T07:15:11.977Z,6.47
2019-03-21T07:18:00.805Z,6.70
2019-03-21T07:20:49.889Z,6.53
2019-03-21T07:23:39.096Z,6.08
2019-03-21T07:26:28.448Z,5.90
2019-03-21T07:29:18.191Z,5.35
2019-03-21T07:32:07.108Z,5.23
2019-03-21T07:34:56.296Z,5.67
2019-03-21T07:37:45.885Z,4.62
2019-03-21T07:40:34.852Z,5.22
2019-03-21T07:43:23.809Z,5.10
2019-03-21T07:46:13.256Z,5.07
2019-03-21T07:49:02.639Z,4.53
2019-03-21T07:51:51.334Z,4.78
2019-03-21T07:54:40.281Z,4.42
2019-03-21T07:57:29.681Z,4.37
2019-03-21T08:00:19.892Z,3.62
2019-03-21T08:03:08.987Z,4.50
2019-03-21T08:05:58.211Z,3.52
2019-03-21T08:08:47.817Z,4.03
2019-03-21T08:11:37.501Z,3.70
2019-03-21T08:14:26.622Z,3.10
2019-03-21T08:17:16.730Z,4.30
2019-03-21T08:20:07.976Z,3.85
2019-03-21T08:22:56.824Z,3.72
2019-03-21T08:25:45.774Z,3.33
2019-03-21T08:28:34.781Z,3.25
2019-03-21T08:31:24.279Z,2.90
2019-03-21T08:34:13.553Z,3.00
2019-03-21T08:37:02.122Z,2.67
2019-03-21T08:39:51.176Z,3.27
2019-03-21T08:42:40.412Z,3.10
2019-03-21T08:45:31.000Z,3.08
2019-03-21T08:48:20.231Z,3.20
2019-03-21T08:51:09.591Z,3.00
2019-03-21T08:53:58.353Z,3.02
2019-03-21T08:56:48.034Z,3.62
2019-03-21T08:59:37.222Z,3.17
2019-03-21T09:02:25.814Z,3.25
2019-03-21T09:05:15.277Z,3.35
2019-03-21T09:08:04.329Z,2.90
2019-03-21T09:10:53.808Z,4.08
2019-03-21T09:13:43.029Z,3.33
2019-03-21T09:16:32.099Z,3.00
2019-03-21T09:19:20.756Z,3.50
2019-03-21T09:22:10.114Z,3.52
2019-03-21T09:24:59.691Z,3.37
2019-03-21T09:27:48.616Z,3.33
2019-03-21T09:30:37.845Z,3.58
2019-03-21T09:33:27.143Z,3.30
2019-03-21T09:36:16.470Z,3.40
2019-03-21T09:39:07.469Z,2.92
2019-03-21T09:41:56.585Z,3.58
2019-03-21T09:44:45.468Z,3.22
2019-03-21T09:47:34.381Z,3.20
2019-03-21T09:50:28.435Z,3.17
2019-03-21T09:53:17.298Z,3.20
2019-03-21T09:56:06.322Z,3.47
2019-03-21T09:58:55.872Z,3.45
2019-03-21T10:01:45.484Z,3.27
2019-03-21T10:04:34.508Z,3.10
2019-03-21T10:07:24.074Z,3.52
2019-03-21T10:10:16.248Z,3.27
2019-03-21T10:13:06.096Z,3.80
2019-03-21T10:15:55.643Z,3.60
2019-03-21T10:18:45.187Z,3.30
2019-03-21T10:21:42.759Z,3.58
2019-03-21T10:24:24.650Z,4.33
2019-03-21T10:27:14.193Z,3.72
2019-03-21T10:30:03.451Z,3.95
2019-03-21T10:32:53.899Z,3.47
2019-03-21T10:35:43.719Z,5.05
2019-03-21T10:38:32.825Z,5.17
2019-03-21T10:41:22.076Z,3.77
2019-03-21T10:44:11.288Z,4.15
2019-03-21T10:47:00.669Z,3.73
2019-03-21T10:49:50.185Z,4.10
2019-03-21T10:52:40.000Z,4.10
2019-03-21T10:55:29.153Z,4.10
2019-03-21T10:58:18.334Z,4.42
2019-03-21T11:01:07.153Z,4.00
2019-03-21T11:03:55.992Z,3.85
2019-03-21T11:06:45.450Z,4.12
2019-03-21T11:09:34.695Z,3.93
2019-03-21T11:12:23.945Z,4.43
2019-03-21T11:15:13.182Z,4.13
2019-03-21T11:18:02.761Z,3.80
2019-03-21T11:20:53.223Z,4.20
2019-03-21T11:23:42.073Z,4.30
2019-03-21T11:26:31.447Z,3.77
2019-03-21T11:29:21.072Z,3.90
2019-03-21T11:32:10.816Z,3.93
2019-03-21T11:35:00.478Z,4.00
2019-03-21T11:37:49.287Z,4.10
2019-03-21T11:40:38.655Z,4.03
2019-03-21T11:43:27.537Z,4.10
2019-03-21T11:46:17.168Z,4.20
2019-03-21T11:49:06.598Z,4.00
2019-03-21T11:51:55.474Z,4.13
2019-03-21T11:54:44.161Z,4.00
2019-03-21T11:57:33.015Z,4.23
2019-03-21T12:00:21.740Z,4.60
2019-03-21T12:03:10.881Z,4.53
2019-03-21T12:06:00.096Z,3.87
2019-03-21T12:08:49.474Z,3.90
2019-03-21T12:11:39.004Z,4.33
2019-03-21T12:14:27.988Z,4.27
2019-03-21T12:17:17.038Z,4.63
2019-03-21T12:20:07.109Z,5.23
2019-03-21T12:22:56.186Z,5.13
2019-03-21T12:25:45.482Z,4.53
2019-03-21T12:28:34.408Z,5.10
2019-03-21T12:31:23.413Z,5.40
2019-03-21T12:34:13.236Z,5.23
2019-03-21T12:37:02.171Z,4.80
2019-03-21T12:39:51.496Z,4.63
2019-03-21T12:42:40.895Z,4.23
2019-03-21T12:45:29.955Z,4.30
2019-03-21T12:48:19.300Z,5.00
2019-03-21T12:51:08.814Z,5.03
2019-03-21T12:53:58.331Z,4.70
2019-03-21T12:56:47.068Z,4.70
2019-03-21T12:59:35.851Z,4.90
2019-03-21T13:02:32.241Z,5.27
2019-03-21T13:05:19.052Z,4.17
2019-03-21T13:08:08.333Z,4.60
2019-03-21T13:10:57.520Z,4.90
2019-03-21T13:13:46.885Z,5.40
2019-03-21T13:16:36.275Z,4.83
2019-03-21T13:19:25.742Z,5.20
2019-03-21T13:22:15.651Z,4.90
2019-03-21T13:25:05.800Z,4.23
2019-03-21T13:27:55.132Z,5.17
2019-03-21T13:30:44.674Z,4.77
2019-03-21T13:33:33.990Z,5.63
2019-03-21T13:36:23.198Z,4.83
2019-03-21T13:39:12.473Z,4.50
2019-03-21T13:42:01.837Z,5.33
2019-03-21T13:44:50.956Z,4.60
2019-03-21T13:47:40.409Z,4.93
2019-03-21T13:50:30.326Z,4.57
2019-03-21T13:53:19.378Z,4.37
2019-03-21T13:56:08.617Z,4.97
2019-03-21T13:58:57.907Z,4.60
2019-03-21T14:01:47.515Z,5.00
2019-03-21T14:04:36.927Z,4.20
2019-03-21T14:07:26.524Z,5.00
2019-03-21T14:10:15.456Z,4.50
2019-03-21T14:13:05.011Z,4.40
2019-03-21T14:15:54.392Z,4.93
2019-03-21T14:18:43.308Z,5.20
2019-03-21T14:21:32.041Z,5.87
2019-03-21T14:24:21.400Z,5.67
2019-03-21T14:27:10.387Z,5.60
2019-03-21T14:30:01.834Z,5.20
2019-03-21T14:32:49.477Z,6.00
2019-03-21T14:35:38.755Z,5.58
2019-03-21T14:38:27.492Z,6.08
2019-03-21T14:41:17.048Z,5.25
2019-03-21T14:44:07.206Z,5.53
2019-03-21T14:46:56.375Z,4.83
2019-03-21T14:49:45.915Z,5.57
2019-03-21T14:52:36.484Z,4.90
2019-03-21T14:55:25.949Z,4.80
2019-03-21T14:58:15.669Z,5.67
2019-03-21T15:01:05.058Z,5.60
2019-03-21T15:03:54.618Z,4.70
2019-03-21T15:06:43.552Z,5.57
2019-03-21T15:09:32.801Z,5.17
2019-03-21T15:12:22.204Z,5.07
2019-03-21T15:15:12.433Z,5.33
2019-03-21T15:18:01.406Z,5.70
2019-03-21T15:20:50.815Z,5.03
2019-03-21T15:23:41.161Z,5.60
2019-03-21T15:26:30.347Z,5.10
2019-03-21T15:29:19.067Z,5.43
2019-03-21T15:32:08.018Z,5.10
2019-03-21T15:34:57.383Z,5.37
2019-03-21T15:37:46.347Z,5.67
2019-03-21T15:40:35.313Z,5.60
2019-03-21T15:43:24.454Z,5.47
2019-03-21T15:46:13.698Z,5.70
2019-03-21T15:49:03.157Z,4.93
2019-03-21T15:51:52.286Z,5.07
2019-03-21T15:54:41.759Z,5.00
2019-03-21T15:57:31.974Z,6.10
2019-03-21T16:00:29.688Z,4.70
2019-03-21T16:03:18.578Z,4.50
2019-03-21T16:06:08.065Z,5.07
2019-03-21T16:08:57.489Z,4.83
2019-03-21T16:11:46.893Z,5.17
2019-03-21T16:14:35.916Z,4.40
2019-03-21T16:17:25.671Z,5.30
2019-03-21T16:20:14.587Z,5.30
2019-03-21T16:23:03.228Z,4.43
2019-03-21T16:25:53.045Z,5.57
2019-03-21T16:28:41.604Z,6.00
2019-03-21T16:31:30.684Z,4.70
2019-03-21T16:34:20.453Z,5.07
2019-03-21T16:37:12.034Z,5.27
2019-03-21T16:40:00.645Z,4.57
2019-03-21T16:42:50.263Z,4.60
2019-03-21T16:45:39.759Z,4.70
2019-03-21T16:48:28.895Z,5.03
2019-03-21T16:51:18.316Z,5.00
2019-03-21T16:54:16.497Z,4.97
2019-03-21T16:56:58.006Z,5.70
2019-03-21T16:59:47.360Z,6.57
2019-03-21T17:02:39.420Z,5.27
2019-03-21T17:05:29.112Z,6.60
2019-03-21T17:08:18.137Z,5.00
2019-03-21T17:11:07.445Z,5.43
2019-03-21T17:13:56.256Z,4.73
2019-03-21T17:16:45.697Z,5.83
2019-03-21T17:19:35.376Z,7.63
2019-03-21T17:22:24.523Z,6.50
2019-03-21T17:25:14.389Z,5.20
2019-03-21T17:28:03.598Z,5.80
2019-03-21T17:30:53.157Z,6.03
2019-03-21T17:33:42.525Z,5.30
2019-03-21T17:36:32.408Z,5.47
2019-03-21T17:39:20.938Z,4.83
2019-03-21T17:42:09.724Z,5.40
2019-03-21T17:44:58.937Z,5.90
2019-03-21T17:47:48.603Z,5.67
2019-03-21T17:50:38.762Z,5.30
2019-03-21T17:53:27.702Z,5.00
2019-03-21T17:56:16.891Z,5.53
2019-03-21T17:59:06.156Z,5.13
2019-03-21T18:01:55.269Z,5.83
2019-03-21T18:04:44.965Z,5.63
2019-03-21T18:07:34.220Z,5.57
2019-03-21T18:10:33.884Z,8.17
2019-03-21T18:13:23.139Z,10.70
2019-03-21T18:16:12.394Z,9.00
2019-03-21T18:19:02.170Z,7.53
2019-03-21T18:21:51.894Z,6.87
2019-03-21T18:24:52.991Z,5.97
2019-03-21T18:27:32.806Z,6.73
2019-03-21T18:30:21.561Z,6.70
2019-03-21T18:33:11.050Z,7.60
2019-03-21T18:36:00.714Z,6.97
2019-03-21T18:38:58.809Z,6.80
2019-03-21T18:41:40.952Z,7.42
2019-03-21T18:44:30.867Z,7.10
2019-03-21T18:47:20.944Z,9.93
2019-03-21T18:50:10.878Z,10.30
2019-03-21T18:52:59.836Z,12.83
2019-03-21T18:55:49.325Z,13.50
2019-03-21T18:58:38.340Z,11.93
2019-03-21T19:01:27.836Z,11.10
2019-03-21T19:04:18.190Z,10.75
2019-03-21T19:07:07.543Z,10.23
2019-03-21T19:09:57.478Z,8.18
2019-03-21T19:12:47.141Z,8.13
2019-03-21T19:15:37.027Z,8.25
2019-03-21T19:18:26.053Z,8.45
2019-03-21T19:21:17.989Z,8.63
2019-03-21T19:24:11.516Z,8.20
2019-03-21T19:27:00.480Z,9.60
2019-03-21T19:29:50.415Z,8.10
2019-03-21T19:32:40.511Z,8.40
2019-03-21T19:35:29.663Z,7.70
2019-03-21T19:38:19.667Z,8.10
2019-03-21T19:41:09.013Z,7.97
2019-03-21T19:43:58.516Z,7.55
2019-03-21T19:46:48.143Z,6.93
2019-03-21T19:49:37.610Z,8.53
2019-03-21T19:52:27.387Z,7.70
2019-03-21T19:55:25.879Z,7.75
2019-03-21T19:58:08.879Z,9.38
2019-03-21T20:00:58.148Z,8.58
2019-03-21T20:03:47.944Z,9.05
2019-03-21T20:06:36.844Z,8.65
2019-03-21T20:09:25.699Z,8.05
2019-03-21T20:12:15.330Z,7.92
2019-03-21T20:15:05.927Z,8.55
2019-03-21T20:17:54.897Z,8.03
2019-03-21T20:20:43.991Z,7.83
2019-03-21T20:23:33.449Z,7.95
2019-03-21T20:26:22.947Z,8.00
2019-03-21T20:29:12.468Z,8.50
2019-03-21T20:32:02.658Z,8.97
2019-03-21T20:34:52.181Z,8.18
2019-03-21T20:37:41.596Z,9.10
2019-03-21T20:40:31.075Z,8.53
2019-03-21T20:43:20.953Z,10.10
2019-03-21T20:46:10.497Z,9.20
2019-03-21T20:48:57.833Z,9.10
2019-03-21T20:51:47.206Z,9.73
2019-03-21T20:54:36.704Z,8.40
2019-03-21T20:57:25.914Z,9.28
2019-03-21T21:00:17.882Z,8.85
2019-03-21T21:03:06.839Z,8.73
2019-03-21T21:05:55.989Z,11.35
2019-03-21T21:08:45.557Z,11.05
2019-03-21T21:11:35.212Z,10.85
2019-03-21T21:14:24.232Z,10.00
2019-03-21T21:17:13.280Z,12.57
2019-03-21T21:20:02.408Z,12.37
2019-03-21T21:22:51.899Z,14.75
2019-03-21T21:25:41.548Z,11.43
2019-03-21T21:28:31.066Z,10.85
2019-03-21T21:31:20.339Z,8.60
2019-03-21T21:34:09.841Z,9.73
2019-03-21T21:36:59.314Z,8.80
2019-03-21T21:39:48.260Z,8.30
2019-03-21T21:42:37.809Z,9.93
2019-03-21T21:45:26.849Z,9.15
2019-03-21T21:48:16.239Z,17.07
2019-03-21T21:51:05.671Z,14.65
2019-03-21T21:53:54.904Z,15.30
2019-03-21T21:56:44.427Z,12.50
2019-03-21T21:59:33.446Z,11.95
2019-03-21T22:02:22.586Z,10.10
2019-03-21T22:05:11.334Z,10.93
2019-03-21T22:08:02.014Z,10.70
2019-03-21T22:10:51.075Z,11.08
2019-03-21T22:13:40.017Z,11.68
2019-03-21T22:16:29.247Z,10.90
2019-03-21T22:19:18.619Z,11.40
2019-03-21T22:22:08.155Z,9.70
2019-03-21T22:24:57.840Z,10.25
2019-03-21T22:27:47.354Z,9.40
2019-03-21T22:30:37.073Z,9.68
2019-03-21T22:33:26.744Z,10.58
2019-03-21T22:36:16.597Z,10.45
2019-03-21T22:39:07.959Z,11.05
2019-03-21T22:41:57.409Z,9.23
2019-03-21T22:44:46.540Z,9.10
2019-03-21T22:47:35.938Z,10.25
2019-03-21T22:50:25.373Z,11.25
2019-03-21T22:53:14.840Z,10.03
2019-03-21T22:56:03.958Z,10.85
2019-03-21T22:58:53.728Z,9.00
2019-03-21T23:01:42.566Z,9.43
2019-03-21T23:04:31.972Z,10.00
2019-03-21T23:07:22.112Z,10.28
2019-03-21T23:10:12.417Z,10.32
2019-03-21T23:13:01.528Z,10.30
2019-03-21T23:15:51.118Z,8.30
2019-03-21T23:18:40.750Z,8.90
2019-03-21T23:21:29.754Z,9.33
2019-03-21T23:24:18.911Z,9.90
2019-03-21T23:27:07.983Z,9.00
2019-03-21T23:29:57.052Z,8.53
2019-03-21T23:32:46.700Z,9.63
2019-03-21T23:35:35.798Z,10.58
2019-03-21T23:38:24.542Z,9.90
2019-03-21T23:41:14.052Z,9.18
2019-03-21T23:44:03.667Z,8.48
2019-03-21T23:46:54.389Z,9.23
2019-03-21T23:49:44.125Z,10.00
2019-03-21T23:52:33.819Z,9.50
2019-03-21T23:55:23.518Z,8.43
2019-03-21T23:58:12.651Z,10.43
